Conquest, Canada
Current Conditions -  °F | °C
As of 4:00 AM on Friday 31 Oct 2014 (Local Time) from CYXE Reporting Station
Overcast Overcast  
Wind Chill: 21°   Ceiling: 14000
Heat Index: 32°   Visibility: 15mi
Dew Point: 28°   Wind: 17mph
Humidity: 87%   Direction: 160°SSE
Pressure: 30.15"   Gusts: 25mph
Location:  51.53°N, 107.25°W
Report Text: CYXE 311000Z 16015G22KT 15SM SCT014 OVC140 00/M02 A3015 RMK SC4AC4 SLP238
Loading
Personal Weather Stations






























Interactive Weather Map
Tropical Storm Tracking
New forecast layout! Learn more

10-Day Weather Forecast

Advertisements
Track Severe Weather on mobile